Taco Ralo, Argentina
Current Conditions -  °F | °C
As of 11:00 PM on Thursday 20 Nov 2014 (Local Time) from SANT Reporting Station
Haze Haze  
Wind Chill: 68°   Ceiling: 3500
Heat Index: 68°   Visibility: 2.5mi
Dew Point: 66°   Wind: 0mph
Humidity: 94%   Direction: NA
Pressure: 29.88"   Gusts: NA
Location:  27.84°S, 65.19°W
Report Text: SANT 210200Z 00000KT 4000 BR SCT004 SCT008OVC035 20/19 Q1012
Loading
Personal Weather Stations






























Interactive Weather Map New forecast layout! Learn more

10-Day Weather Forecast

Advertisements
Track Severe Weather on mobile